Time;durP1;ratioP1;P1;durP2;ratioP2;P2;SDS_P1;SDS_P2;PMS_P1;PMS_P2;Temp;Humidity;BMP_temperature;BMP_pressure;BME280_temperature;BME280_humidity;BME280_pressure;Samples;Min_cycle;Max_cycle;Signal;HPM_P1;HPM_P2
2021/09/12 00:02:21;;;;;;;13.57;3.90;;;;;;;;;;5042376;28;20046;-55
2021/09/12 00:04:47;;;;;;;10.82;3.45;;;;;;;;;;5018381;28;20042;-57
2021/09/12 00:07:14;;;;;;;14.63;3.60;;;;;;;;;;5022870;28;20048;-52
2021/09/12 00:09:41;;;;;;;15.68;4.05;;;;;;;;;;5026342;28;20046;-54
2021/09/12 00:12:08;;;;;;;14.65;4.07;;;;;;;;;;5036722;28;20034;-57
2021/09/12 00:14:36;;;;;;;12.10;3.65;;;;;;;;;;5005632;28;20038;-52
2021/09/12 00:17:03;;;;;;;16.17;4.25;;;;;;;;;;5030407;28;20087;-57
2021/09/12 00:19:29;;;;;;;11.35;3.90;;;;;;;;;;5025840;28;20037;-56
2021/09/12 00:21:55;;;;;;;15.32;4.15;;;;;;;;;;5023318;28;20030;-57
2021/09/12 00:24:22;;;;;;;12.68;4.20;;;;;;;;;;5027124;28;20038;-57
2021/09/12 00:26:49;;;;;;;17.83;4.28;;;;;;;;;;5022635;28;20034;-55
2021/09/12 00:29:16;;;;;;;13.05;3.80;;;;;;;;;;5026106;28;20053;-57
2021/09/12 00:31:44;;;;;;;10.98;4.32;;;;;;;;;;5023831;28;20041;-55
2021/09/12 00:34:11;;;;;;;11.32;4.45;;;;;;;;;;5024919;28;20049;-56
2021/09/12 00:36:42;;;;;;;14.13;4.35;;;;;;;;;;5022893;28;20090;-57
2021/09/12 00:39:08;;;;;;;14.45;4.70;;;;;;;;;;5025339;28;20045;-55
2021/09/12 00:41:36;;;;;;;10.23;4.18;;;;;;;;;;5021750;28;20033;-56
2021/09/12 00:44:02;;;;;;;13.23;4.32;;;;;;;;;;5027502;28;20052;-55
2021/09/12 00:46:39;;;;;;;21.75;4.60;;;;;;;;;;5023122;28;20034;-57
2021/09/12 00:49:07;;;;;;;13.65;4.80;;;;;;;;;;5027721;28;20119;-57
2021/09/12 00:51:33;;;;;;;14.60;5.07;;;;;;;;;;5026041;28;20033;-56
2021/09/12 00:54:00;;;;;;;11.13;4.57;;;;;;;;;;5021815;28;20045;-54
2021/09/12 00:56:29;;;;;;;13.23;4.60;;;;;;;;;;5025805;28;20037;-55
2021/09/12 00:58:56;;;;;;;15.38;4.65;;;;;;;;;;5022248;28;20048;-57
2021/09/12 01:01:25;;;;;;;12.23;4.70;;;;;;;;;;5025568;28;20038;-57
2021/09/12 01:03:52;;;;;;;10.68;4.28;;;;;;;;;;5036377;28;20049;-57
2021/09/12 01:06:26;;;;;;;14.80;4.10;;;;;;;;;;5026135;28;20050;-56
2021/09/12 01:08:53;;;;;;;13.48;4.05;;;;;;;;;;5021037;28;20049;-57
2021/09/12 01:11:19;;;;;;;13.57;4.10;;;;;;;;;;5024778;28;20107;-57
2021/09/12 01:13:46;;;;;;;15.00;4.53;;;;;;;;;;5022537;28;20057;-56
2021/09/12 01:16:13;;;;;;;13.02;3.65;;;;;;;;;;5024328;28;20038;-57
2021/09/12 01:18:40;;;;;;;10.50;3.50;;;;;;;;;;5022668;28;21488;-55
2021/09/12 01:21:09;;;;;;;9.75;4.03;;;;;;;;;;5042853;28;20037;-55
2021/09/12 01:23:35;;;;;;;;;;;;;;;;;;5022543;28;20046;-55
2021/09/12 01:26:03;;;;;;;6.95;3.00;;;;;;;;;;5025645;28;19914;-56
2021/09/12 01:28:30;;;;;;;10.05;3.70;;;;;;;;;;5020851;28;20045;-56
2021/09/12 01:31:00;;;;;;;8.73;3.03;;;;;;;;;;5023929;28;20066;-56
2021/09/12 01:33:26;;;;;;;10.05;3.58;;;;;;;;;;5038741;28;20038;-56
2021/09/12 01:35:53;;;;;;;16.65;3.60;;;;;;;;;;5025323;28;20092;-57
2021/09/12 01:38:20;;;;;;;12.18;3.08;;;;;;;;;;5026422;28;20116;-56
2021/09/12 01:40:46;;;;;;;11.13;3.05;;;;;;;;;;5020225;28;20107;-55
2021/09/12 01:43:14;;;;;;;8.75;3.58;;;;;;;;;;5024393;28;20046;-56
2021/09/12 01:45:41;;;;;;;14.57;4.13;;;;;;;;;;5022017;28;20033;-53
2021/09/12 01:48:07;;;;;;;12.07;4.07;;;;;;;;;;5025505;28;20315;-57
2021/09/12 01:50:34;;;;;;;11.43;3.78;;;;;;;;;;5022281;28;20061;-57
2021/09/12 01:53:00;;;;;;;11.88;3.55;;;;;;;;;;5035984;28;20046;-52
2021/09/12 01:55:26;;;;;;;9.82;3.05;;;;;;;;;;5012252;28;20078;-56
2021/09/12 01:57:53;;;;;;;14.30;3.63;;;;;;;;;;5042334;28;20048;-55
2021/09/12 02:00:21;;;;;;;9.18;3.33;;;;;;;;;;5036615;28;20049;-57
2021/09/12 02:02:47;;;;;;;11.93;3.63;;;;;;;;;;5024622;28;20038;-57
2021/09/12 02:05:15;;;;;;;10.07;3.13;;;;;;;;;;5023145;28;20037;-57
2021/09/12 02:07:41;;;;;;;7.70;2.77;;;;;;;;;;5024882;28;20030;-54
2021/09/12 02:10:08;;;;;;;12.25;3.22;;;;;;;;;;5022569;28;20042;-57
2021/09/12 02:12:35;;;;;;;8.32;3.03;;;;;;;;;;5005521;28;20049;-54
2021/09/12 02:15:03;;;;;;;11.43;3.47;;;;;;;;;;5002412;28;20030;-56
2021/09/12 02:17:31;;;;;;;8.05;3.08;;;;;;;;;;5032869;28;20044;-55
2021/09/12 02:19:58;;;;;;;11.17;3.03;;;;;;;;;;5024495;28;20049;-58
2021/09/12 02:22:26;;;;;;;10.45;3.03;;;;;;;;;;5038758;28;20275;-56
2021/09/12 02:24:53;;;;;;;8.98;2.65;;;;;;;;;;5024946;28;20042;-56
2021/09/12 02:27:19;;;;;;;9.95;3.13;;;;;;;;;;5037046;28;20094;-54
2021/09/12 02:29:46;;;;;;;10.38;3.10;;;;;;;;;;5024888;28;20050;-56
2021/09/12 02:32:14;;;;;;;11.57;2.95;;;;;;;;;;5022736;28;20339;-57
2021/09/12 02:34:47;;;;;;;11.13;2.70;;;;;;;;;;5024934;28;20038;-57
2021/09/12 02:37:14;;;;;;;6.82;3.03;;;;;;;;;;5020345;28;20050;-57
2021/09/12 02:39:42;;;;;;;9.57;2.90;;;;;;;;;;5024794;28;20066;-58
2021/09/12 02:42:09;;;;;;;;;;;;;;;;;;5022604;28;20041;-56
2021/09/12 02:44:37;;;;;;;6.75;2.22;;;;;;;;;;5023816;28;19921;-55
2021/09/12 02:47:04;;;;;;;6.78;2.80;;;;;;;;;;5021859;28;20048;-57
2021/09/12 02:49:33;;;;;;;8.52;3.03;;;;;;;;;;5021879;28;20096;-58
2021/09/12 02:52:00;;;;;;;6.30;2.58;;;;;;;;;;5020279;28;20053;-57
2021/09/12 02:54:27;;;;;;;9.47;2.90;;;;;;;;;;5024332;28;20041;-56
2021/09/12 02:56:53;;;;;;;5.28;2.60;;;;;;;;;;5020733;28;20044;-58
2021/09/12 02:59:20;;;;;;;10.23;3.03;;;;;;;;;;5024136;28;20070;-56
2021/09/12 03:01:46;;;;;;;6.95;2.83;;;;;;;;;;5067502;23;20073;-57
2021/09/12 03:04:13;;;;;;;8.02;3.08;;;;;;;;;;4978911;28;20034;-55
2021/09/12 03:06:39;;;;;;;13.55;2.80;;;;;;;;;;4977932;28;20050;-57
2021/09/12 03:09:07;;;;;;;14.02;3.42;;;;;;;;;;4975641;28;20043;-55
2021/09/12 03:11:34;;;;;;;10.45;3.38;;;;;;;;;;4973056;28;20052;-56
2021/09/12 03:14:00;;;;;;;10.82;3.70;;;;;;;;;;4969537;28;20055;-57
2021/09/12 03:16:27;;;;;;;10.68;3.50;;;;;;;;;;4981963;28;20058;-56
2021/09/12 03:18:53;;;;;;;13.07;4.00;;;;;;;;;;4970649;28;20062;-56
2021/09/12 03:21:20;;;;;;;11.32;3.63;;;;;;;;;;4974771;28;20043;-55
2021/09/12 03:23:47;;;;;;;12.68;3.88;;;;;;;;;;4976451;28;20058;-55
2021/09/12 03:26:16;;;;;;;12.88;3.60;;;;;;;;;;4967626;28;20035;-57
2021/09/12 03:28:42;;;;;;;12.27;3.33;;;;;;;;;;4970180;28;20039;-56
2021/09/12 03:31:09;;;;;;;13.32;3.65;;;;;;;;;;4971942;28;20043;-56
2021/09/12 03:33:35;;;;;;;7.15;3.40;;;;;;;;;;4976129;28;20120;-56
2021/09/12 03:36:03;;;;;;;9.48;3.80;;;;;;;;;;4976010;28;20115;-57
2021/09/12 03:38:30;;;;;;;11.40;3.72;;;;;;;;;;4976689;28;20089;-55
2021/09/12 03:40:56;;;;;;;10.48;3.38;;;;;;;;;;4981122;28;20122;-57
2021/09/12 03:43:24;;;;;;;11.07;3.35;;;;;;;;;;4978694;28;20117;-56
2021/09/12 03:45:51;;;;;;;10.52;3.47;;;;;;;;;;4980658;28;20057;-55
2021/09/12 03:48:17;;;;;;;16.35;3.40;;;;;;;;;;4973606;28;20061;-58
2021/09/12 03:50:43;;;;;;;12.15;3.58;;;;;;;;;;4983267;28;20062;-55
2021/09/12 03:53:10;;;;;;;13.52;4.35;;;;;;;;;;5014559;28;20046;-53
2021/09/12 03:55:36;;;;;;;9.98;3.78;;;;;;;;;;4999716;28;20049;-56
2021/09/12 03:58:03;;;;;;;12.43;4.07;;;;;;;;;;5016353;28;20075;-56
2021/09/12 04:00:32;;;;;;;11.30;4.50;;;;;;;;;;5003025;28;20057;-56
2021/09/12 04:02:58;;;;;;;13.80;4.43;;;;;;;;;;5003042;28;20060;-56
2021/09/12 04:05:27;;;;;;;10.93;4.00;;;;;;;;;;5017040;28;20050;-56
2021/09/12 04:07:54;;;;;;;11.85;4.40;;;;;;;;;;5024278;28;20048;-57
2021/09/12 04:10:20;;;;;;;17.30;4.15;;;;;;;;;;5014070;28;20049;-56
2021/09/12 04:12:46;;;;;;;15.52;4.45;;;;;;;;;;4988741;28;20038;-57
2021/09/12 04:15:13;;;;;;;11.88;4.03;;;;;;;;;;4985592;28;20112;-57
2021/09/12 04:17:41;;;;;;;13.50;4.57;;;;;;;;;;4987245;28;20056;-57
2021/09/12 04:20:08;;;;;;;13.27;4.57;;;;;;;;;;4987595;28;20034;-57
2021/09/12 04:22:35;;;;;;;12.60;4.18;;;;;;;;;;5025281;28;20038;-57
2021/09/12 04:25:01;;;;;;;11.32;4.57;;;;;;;;;;5024727;28;20068;-55
2021/09/12 04:27:28;;;;;;;12.10;4.30;;;;;;;;;;5002799;28;20119;-56
2021/09/12 04:29:54;;;;;;;12.65;4.55;;;;;;;;;;5007190;28;20049;-57
2021/09/12 04:32:21;;;;;;;10.80;3.90;;;;;;;;;;5004500;28;20101;-57
2021/09/12 04:34:58;;;;;;;11.88;4.13;;;;;;;;;;5010562;28;20144;-57
2021/09/12 04:37:24;;;;;;;12.10;4.50;;;;;;;;;;5004355;28;20092;-58
2021/09/12 04:39:51;;;;;;;11.73;4.90;;;;;;;;;;5007572;28;20042;-57
2021/09/12 04:42:17;;;;;;;13.15;5.20;;;;;;;;;;5002693;28;20049;-56
2021/09/12 04:44:45;;;;;;;13.65;5.00;;;;;;;;;;5006089;28;20049;-56
2021/09/12 04:47:11;;;;;;;11.68;4.85;;;;;;;;;;5003237;28;20045;-55
2021/09/12 04:49:38;;;;;;;11.30;5.25;;;;;;;;;;5007359;28;20041;-56
2021/09/12 04:52:06;;;;;;;23.02;5.80;;;;;;;;;;5020685;28;20135;-56
2021/09/12 04:54:33;;;;;;;14.75;5.70;;;;;;;;;;5023326;28;20053;-57
2021/09/12 04:56:59;;;;;;;19.92;6.82;;;;;;;;;;5002544;28;20045;-55
2021/09/12 04:59:25;;;;;;;12.70;5.70;;;;;;;;;;5006499;28;20034;-57
2021/09/12 05:01:52;;;;;;;16.42;6.35;;;;;;;;;;5001564;28;20050;-55
2021/09/12 05:04:18;;;;;;;16.10;6.20;;;;;;;;;;4998990;28;20030;-56
2021/09/12 05:06:45;;;;;;;17.80;6.50;;;;;;;;;;5003413;28;20048;-57
2021/09/12 05:09:12;;;;;;;13.40;6.32;;;;;;;;;;4997284;28;20057;-56
2021/09/12 05:11:39;;;;;;;20.20;6.97;;;;;;;;;;4992444;28;20094;-57
2021/09/12 05:14:05;;;;;;;14.65;6.90;;;;;;;;;;4999177;28;20049;-56
2021/09/12 05:16:32;;;;;;;19.60;7.03;;;;;;;;;;5005460;28;20053;-55
2021/09/12 05:18:58;;;;;;;15.40;6.45;;;;;;;;;;5002106;28;20046;-55
2021/09/12 05:21:24;;;;;;;17.33;7.30;;;;;;;;;;5004820;28;20054;-55
2021/09/12 05:23:51;;;;;;;22.02;7.47;;;;;;;;;;5003059;28;20061;-57
2021/09/12 05:26:19;;;;;;;17.27;6.93;;;;;;;;;;5005557;28;20033;-54
2021/09/12 05:28:46;;;;;;;19.13;7.03;;;;;;;;;;4986642;28;20045;-55
2021/09/12 05:31:12;;;;;;;18.88;7.15;;;;;;;;;;5006208;28;20041;-55
2021/09/12 05:33:39;;;;;;;18.67;6.80;;;;;;;;;;5019935;28;20053;-56
2021/09/12 05:36:10;;;;;;;23.08;7.45;;;;;;;;;;5007643;28;20041;-54
2021/09/12 05:38:36;;;;;;;15.15;6.93;;;;;;;;;;5002680;28;20030;-57
2021/09/12 05:41:02;;;;;;;20.80;7.18;;;;;;;;;;5005826;28;20034;-55
2021/09/12 05:43:30;;;;;;;20.13;7.57;;;;;;;;;;5003161;28;20059;-52
2021/09/12 05:45:57;;;;;;;16.92;6.93;;;;;;;;;;5005482;28;20050;-53
2021/09/12 05:48:26;;;;;;;20.45;6.95;;;;;;;;;;5003338;28;20045;-57
2021/09/12 05:50:52;;;;;;;;;;;;;;;;;;4987362;28;20056;-56
2021/09/12 05:53:20;;;;;;;15.73;6.45;;;;;;;;;;4985335;28;19933;-55
2021/09/12 05:55:50;;;;;;;17.05;7.50;;;;;;;;;;5002310;28;20038;-56
2021/09/12 05:58:16;;;;;;;21.55;7.90;;;;;;;;;;5005451;28;20101;-53
2021/09/12 06:00:44;;;;;;;22.27;7.85;;;;;;;;;;5002793;28;20042;-53
2021/09/12 06:03:11;;;;;;;17.13;7.30;;;;;;;;;;4997984;28;20042;-55
2021/09/12 06:05:38;;;;;;;22.45;8.60;;;;;;;;;;4978556;28;20039;-58
2021/09/12 06:08:05;;;;;;;19.73;7.68;;;;;;;;;;4986520;28;20030;-57
2021/09/12 06:10:31;;;;;;;14.57;6.75;;;;;;;;;;4978211;28;20054;-58
2021/09/12 06:12:58;;;;;;;16.85;7.28;;;;;;;;;;4966238;28;20043;-57
2021/09/12 06:15:25;;;;;;;15.95;7.35;;;;;;;;;;4969650;28;20042;-56
2021/09/12 06:17:53;;;;;;;18.30;7.38;;;;;;;;;;4982249;28;20050;-55
2021/09/12 06:20:19;;;;;;;22.50;6.82;;;;;;;;;;4979459;28;20053;-56
2021/09/12 06:22:46;;;;;;;21.70;7.35;;;;;;;;;;4982330;28;20053;-53
2021/09/12 06:25:14;;;;;;;19.27;7.15;;;;;;;;;;4979638;28;20129;-53
2021/09/12 06:27:41;;;;;;;15.73;6.65;;;;;;;;;;4981947;28;20027;-56
2021/09/12 06:30:09;;;;;;;16.42;7.30;;;;;;;;;;4945426;28;20046;-54
2021/09/12 06:32:35;;;;;;;16.45;6.53;;;;;;;;;;4997530;28;20057;-55
2021/09/12 06:35:05;;;;;;;28.83;6.85;;;;;;;;;;4980989;28;20059;-55
2021/09/12 06:37:32;;;;;;;20.42;7.28;;;;;;;;;;4977235;28;20042;-56
2021/09/12 06:39:59;;;;;;;17.92;6.75;;;;;;;;;;4997015;28;20046;-53
2021/09/12 06:42:25;;;;;;;15.63;6.90;;;;;;;;;;4978071;28;20053;-57
2021/09/12 06:44:52;;;;;;;18.45;7.07;;;;;;;;;;4983071;28;20031;-56
2021/09/12 06:47:19;;;;;;;21.10;6.88;;;;;;;;;;4978666;28;20023;-54
2021/09/12 06:49:45;;;;;;;21.52;6.72;;;;;;;;;;4981669;28;20050;-54
2021/09/12 06:52:13;;;;;;;15.23;6.43;;;;;;;;;;4979350;28;20054;-56
2021/09/12 06:54:39;;;;;;;16.33;6.30;;;;;;;;;;4981934;28;20042;-54
2021/09/12 06:57:06;;;;;;;16.20;6.53;;;;;;;;;;4980359;28;20057;-56
2021/09/12 06:59:32;;;;;;;14.35;6.50;;;;;;;;;;4982403;28;20054;-52
2021/09/12 07:01:59;;;;;;;24.75;6.50;;;;;;;;;;4978147;28;20083;-56
2021/09/12 07:04:25;;;;;;;14.20;6.45;;;;;;;;;;5006022;28;20056;-53
2021/09/12 07:06:51;;;;;;;29.33;7.07;;;;;;;;;;5002460;28;20049;-54
2021/09/12 07:09:19;;;;;;;14.32;5.57;;;;;;;;;;5003675;28;20055;-54
2021/09/12 07:11:46;;;;;;;17.87;6.30;;;;;;;;;;5013745;28;20041;-56
2021/09/12 07:14:12;;;;;;;20.95;5.93;;;;;;;;;;5005917;28;20026;-53
2021/09/12 07:16:40;;;;;;;12.98;6.38;;;;;;;;;;5004768;28;20045;-55
2021/09/12 07:19:08;;;;;;;23.98;6.20;;;;;;;;;;5001245;28;20054;-53
2021/09/12 07:21:35;;;;;;;19.23;5.38;;;;;;;;;;5003625;28;20112;-55
2021/09/12 07:24:01;;;;;;;13.80;5.47;;;;;;;;;;5002644;28;20038;-55
2021/09/12 07:26:29;;;;;;;14.88;5.47;;;;;;;;;;5004134;28;20042;-54
2021/09/12 07:28:56;;;;;;;15.02;5.15;;;;;;;;;;5000896;28;20049;-56
2021/09/12 07:31:22;;;;;;;13.05;6.05;;;;;;;;;;5004695;28;20042;-53
2021/09/12 07:33:49;;;;;;;11.73;5.70;;;;;;;;;;5000587;28;20057;-52
2021/09/12 07:36:16;;;;;;;17.63;5.90;;;;;;;;;;5003247;28;20076;-57
2021/09/12 07:38:45;;;;;;;14.98;6.63;;;;;;;;;;5002791;28;20041;-53
2021/09/12 07:41:12;;;;;;;18.48;9.00;;;;;;;;;;5006459;28;20036;-56
2021/09/12 07:43:40;;;;;;;20.90;8.73;;;;;;;;;;5005196;28;20041;-55
2021/09/12 07:46:07;;;;;;;17.70;6.57;;;;;;;;;;5004472;28;20065;-56
2021/09/12 07:48:34;;;;;;;22.87;5.87;;;;;;;;;;5003638;28;20044;-55
2021/09/12 07:51:02;;;;;;;16.77;6.07;;;;;;;;;;5006789;28;20292;-54
2021/09/12 07:53:31;;;;;;;16.05;6.07;;;;;;;;;;5001001;28;20070;-54
2021/09/12 07:55:59;;;;;;;16.38;6.20;;;;;;;;;;5015447;28;20052;-52
2021/09/12 07:58:26;;;;;;;18.23;6.60;;;;;;;;;;5020897;28;20049;-55
2021/09/12 08:00:53;;;;;;;18.15;5.90;;;;;;;;;;5004060;28;20053;-53
2021/09/12 08:03:20;;;;;;;17.23;7.17;;;;;;;;;;5004233;28;20042;-55
2021/09/12 08:05:48;;;;;;;18.13;6.35;;;;;;;;;;4998475;28;20086;-56
2021/09/12 08:08:14;;;;;;;18.88;6.85;;;;;;;;;;5024261;28;20052;-55
2021/09/12 08:10:41;;;;;;;12.80;6.28;;;;;;;;;;4998593;28;20060;-55
2021/09/12 08:13:09;;;;;;;14.68;6.47;;;;;;;;;;5004345;28;20045;-56
2021/09/12 08:15:36;;;;;;;14.13;6.70;;;;;;;;;;5001505;28;20042;-55
2021/09/12 08:18:04;;;;;;;18.00;6.80;;;;;;;;;;4997622;28;20037;-56
2021/09/12 08:20:30;;;;;;;18.75;6.68;;;;;;;;;;5000942;28;20045;-56
2021/09/12 08:22:57;;;;;;;15.15;6.00;;;;;;;;;;5006582;28;20055;-56
2021/09/12 08:25:23;;;;;;;14.43;6.95;;;;;;;;;;5021453;28;20061;-55
2021/09/12 08:27:50;;;;;;;17.65;6.88;;;;;;;;;;5020155;28;20033;-56
2021/09/12 08:30:17;;;;;;;17.08;6.35;;;;;;;;;;5000536;28;20053;-56
2021/09/12 08:32:43;;;;;;;19.38;7.20;;;;;;;;;;5004638;28;20057;-55
2021/09/12 08:35:12;;;;;;;17.88;7.65;;;;;;;;;;5003848;28;20061;-54
2021/09/12 08:37:39;;;;;;;33.65;11.13;;;;;;;;;;5002498;28;20037;-56
2021/09/12 08:40:06;;;;;;;17.80;7.95;;;;;;;;;;5000718;28;20049;-56
2021/09/12 08:42:33;;;;;;;17.95;7.60;;;;;;;;;;5004101;28;20033;-55
2021/09/12 08:45:00;;;;;;;17.90;7.18;;;;;;;;;;5006696;28;20041;-56
2021/09/12 08:47:27;;;;;;;17.25;6.90;;;;;;;;;;5002900;28;20060;-55
2021/09/12 08:49:53;;;;;;;24.70;6.78;;;;;;;;;;5006972;28;20045;-56
2021/09/12 08:52:21;;;;;;;21.20;6.82;;;;;;;;;;5019723;28;20042;-54
2021/09/12 08:54:49;;;;;;;16.80;7.25;;;;;;;;;;5005062;28;20045;-56
2021/09/12 08:57:16;;;;;;;15.45;6.60;;;;;;;;;;5000471;28;20029;-53
2021/09/12 08:59:47;;;;;;;24.75;7.30;;;;;;;;;;5007568;28;20038;-53
2021/09/12 09:02:14;;;;;;;13.98;6.55;;;;;;;;;;5001574;28;20041;-54
2021/09/12 09:04:41;;;;;;;14.63;6.82;;;;;;;;;;5004479;28;20030;-55
2021/09/12 09:07:08;;;;;;;21.80;7.28;;;;;;;;;;4994707;28;20034;-56
2021/09/12 09:09:44;;;;;;;25.30;7.90;;;;;;;;;;5006240;28;20142;-55
2021/09/12 09:12:24;;;;;;;16.40;6.95;;;;;;;;;;5012974;28;20085;-55
2021/09/12 09:15:00;;;;;;;18.25;7.05;;;;;;;;;;5022208;28;20037;-57
2021/09/12 09:17:27;;;;;;;14.80;6.45;;;;;;;;;;4998946;28;20061;-55
2021/09/12 09:19:53;;;;;;;20.00;8.30;;;;;;;;;;5017768;28;20117;-57
2021/09/12 09:22:29;;;;;;;15.25;6.97;;;;;;;;;;4999082;28;20052;-56
2021/09/12 09:24:59;;;;;;;16.83;7.00;;;;;;;;;;5001149;28;20042;-56
2021/09/12 09:27:25;;;;;;;20.45;6.55;;;;;;;;;;5001270;28;20052;-56
2021/09/12 09:29:56;;;;;;;20.95;7.35;;;;;;;;;;5013126;28;20064;-55
2021/09/12 09:32:22;;;;;;;18.23;6.93;;;;;;;;;;5004198;28;20054;-57
2021/09/12 09:34:52;;;;;;;18.50;6.80;;;;;;;;;;4994678;28;20048;-57
2021/09/12 09:37:19;;;;;;;20.23;7.05;;;;;;;;;;4998736;28;20038;-57
2021/09/12 09:39:47;;;;;;;16.58;7.68;;;;;;;;;;5004735;28;20054;-55
2021/09/12 09:42:28;;;;;;;18.65;8.77;;;;;;;;;;5004984;28;20042;-55
2021/09/12 09:44:59;;;;;;;27.00;7.68;;;;;;;;;;5019171;28;20050;-56
2021/09/12 09:47:27;;;;;;;22.15;9.88;;;;;;;;;;5004768;28;20025;-56
2021/09/12 09:50:02;;;;;;;21.70;8.83;;;;;;;;;;5018475;28;20055;-57
2021/09/12 09:52:29;;;;;;;16.52;7.93;;;;;;;;;;5003499;28;20287;-54
2021/09/12 09:54:56;;;;;;;26.95;8.45;;;;;;;;;;5003818;28;20042;-56
2021/09/12 09:57:23;;;;;;;17.63;8.85;;;;;;;;;;5004146;28;20041;-54
2021/09/12 09:59:49;;;;;;;19.38;8.30;;;;;;;;;;5000805;28;20094;-56
2021/09/12 10:02:17;;;;;;;17.30;8.23;;;;;;;;;;5004684;28;20042;-56
2021/09/12 10:04:44;;;;;;;23.23;8.15;;;;;;;;;;5020270;28;20119;-56
2021/09/12 10:07:12;;;;;;;20.63;7.65;;;;;;;;;;5004618;28;20049;-57
2021/09/12 10:09:39;;;;;;;23.48;8.50;;;;;;;;;;4997302;28;20135;-56
2021/09/12 10:12:07;;;;;;;19.83;8.15;;;;;;;;;;5020806;28;20058;-54
2021/09/12 10:14:36;;;;;;;22.33;8.20;;;;;;;;;;5000389;28;20172;-53
2021/09/12 10:17:03;;;;;;;25.67;10.18;;;;;;;;;;5004989;28;20053;-55
2021/09/12 10:19:35;;;;;;;27.95;8.77;;;;;;;;;;5017921;28;20045;-57
2021/09/12 10:22:07;;;;;;;27.23;9.60;;;;;;;;;;5005314;28;20050;-55
2021/09/12 10:24:34;;;;;;;24.77;8.85;;;;;;;;;;4998863;28;20228;-56
2021/09/12 10:27:32;;;;;;;24.05;8.82;;;;;;;;;;5002987;28;20127;-56
2021/09/12 10:29:59;;;;;;;24.88;9.57;;;;;;;;;;4996781;28;20038;-56
2021/09/12 10:32:33;;;;;;;29.77;9.55;;;;;;;;;;5004627;28;20038;-55
2021/09/12 10:35:18;;;;;;;24.00;10.10;;;;;;;;;;5016706;28;20053;-55
2021/09/12 10:38:00;;;;;;;22.45;9.75;;;;;;;;;;4998470;28;20038;-57
2021/09/12 10:40:56;;;;;;;24.40;10.27;;;;;;;;;;4997365;28;20049;-57
2021/09/12 10:43:40;;;;;;;25.35;10.82;;;;;;;;;;5003375;28;20116;-56
2021/09/12 10:46:25;;;;;;;24.45;10.63;;;;;;;;;;4990303;28;20059;-56
2021/09/12 10:49:09;;;;;;;25.73;11.65;;;;;;;;;;4998068;28;20056;-57
2021/09/12 10:51:40;;;;;;;24.95;10.77;;;;;;;;;;4997183;28;20045;-54
2021/09/12 10:54:07;;;;;;;22.15;9.90;;;;;;;;;;5003689;28;20026;-57
2021/09/12 10:56:36;;;;;;;28.73;11.20;;;;;;;;;;5003415;28;20061;-56
2021/09/12 10:59:03;;;;;;;34.65;11.70;;;;;;;;;;5002448;28;20052;-57
2021/09/12 11:01:31;;;;;;;26.83;12.00;;;;;;;;;;5020461;28;20037;-57
2021/09/12 11:03:58;;;;;;;25.55;11.30;;;;;;;;;;5002631;28;20070;-57
2021/09/12 11:06:28;;;;;;;24.25;10.88;;;;;;;;;;5001357;28;20057;-57
2021/09/12 11:08:56;;;;;;;20.88;10.45;;;;;;;;;;5023012;28;20070;-57
2021/09/12 11:11:23;;;;;;;25.92;11.48;;;;;;;;;;5018566;28;20104;-57
2021/09/12 11:13:51;;;;;;;23.17;11.93;;;;;;;;;;5005939;28;20074;-57
2021/09/12 11:16:21;;;;;;;27.38;11.05;;;;;;;;;;5003767;28;20138;-57
2021/09/12 11:18:48;;;;;;;34.45;13.60;;;;;;;;;;5005312;28;20089;-57
2021/09/12 11:21:25;;;;;;;29.17;13.27;;;;;;;;;;5003402;28;20101;-54
2021/09/12 11:23:57;;;;;;;26.45;12.02;;;;;;;;;;5003711;28;20068;-57
2021/09/12 11:26:24;;;;;;;26.50;11.85;;;;;;;;;;5009003;28;20053;-56
2021/09/12 11:28:59;;;;;;;31.83;14.30;;;;;;;;;;5003610;28;20060;-57
2021/09/12 11:31:28;;;;;;;28.30;13.65;;;;;;;;;;5003752;28;20048;-56
2021/09/12 11:33:54;;;;;;;27.35;13.18;;;;;;;;;;5017181;28;20038;-57
2021/09/12 11:36:22;;;;;;;29.70;12.27;;;;;;;;;;5004239;28;20119;-56
2021/09/12 11:38:54;;;;;;;26.98;12.88;;;;;;;;;;5018717;28;20063;-57
2021/09/12 11:41:23;;;;;;;31.52;13.88;;;;;;;;;;5005008;28;20037;-57
2021/09/12 11:43:53;;;;;;;29.38;13.98;;;;;;;;;;5002106;28;20119;-56
2021/09/12 11:46:20;;;;;;;30.50;14.50;;;;;;;;;;5006632;28;20030;-56
2021/09/12 11:48:52;;;;;;;31.40;14.50;;;;;;;;;;4997383;28;20052;-55
2021/09/12 11:51:23;;;;;;;34.03;15.77;;;;;;;;;;5007484;28;20053;-57
2021/09/12 11:53:50;;;;;;;41.70;16.42;;;;;;;;;;5005127;28;20053;-57
2021/09/12 11:56:18;;;;;;;30.67;14.75;;;;;;;;;;5005684;28;20049;-57
2021/09/12 11:58:45;;;;;;;28.27;14.27;;;;;;;;;;5021311;28;20041;-54
2021/09/12 12:01:13;;;;;;;29.35;12.63;;;;;;;;;;5003951;28;20056;-56
2021/09/12 12:03:40;;;;;;;31.97;14.97;;;;;;;;;;4987463;28;20120;-56
2021/09/12 12:06:10;;;;;;;32.75;14.20;;;;;;;;;;4980231;28;20049;-57
2021/09/12 12:08:36;;;;;;;31.98;13.25;;;;;;;;;;4980205;28;20083;-58
2021/09/12 12:11:03;;;;;;;28.20;13.60;;;;;;;;;;4977565;28;20039;-58
2021/09/12 12:13:30;;;;;;;26.95;12.63;;;;;;;;;;4975513;28;20058;-57
2021/09/12 12:16:01;;;;;;;31.60;12.38;;;;;;;;;;4980452;28;20047;-57
2021/09/12 12:18:28;;;;;;;29.58;14.88;;;;;;;;;;4981919;28;20057;-57
2021/09/12 12:20:56;;;;;;;37.58;16.85;;;;;;;;;;4982008;28;20058;-55
2021/09/12 12:23:23;;;;;;;34.67;14.95;;;;;;;;;;4982588;28;20039;-58
2021/09/12 12:25:51;;;;;;;25.13;12.30;;;;;;;;;;4970740;28;20127;-57
2021/09/12 12:28:19;;;;;;;22.83;11.52;;;;;;;;;;4977667;28;20062;-58
2021/09/12 12:30:46;;;;;;;;;;;;;;;;;;4977043;28;20042;-58
2021/09/12 12:33:17;;;;;;;25.23;12.00;;;;;;;;;;4979154;28;19911;-58
2021/09/12 12:36:00;;;;;;;30.98;11.20;;;;;;;;;;4982044;28;20125;-58
2021/09/12 12:38:28;;;;;;;25.38;12.07;;;;;;;;;;4980835;28;20177;-58
2021/09/12 12:41:02;;;;;;;24.85;12.40;;;;;;;;;;4975099;28;20055;-58
2021/09/12 12:43:28;;;;;;;28.50;12.70;;;;;;;;;;4974996;28;20043;-58
2021/09/12 12:45:55;;;;;;;21.95;11.80;;;;;;;;;;4981656;28;20062;-57
2021/09/12 12:48:23;;;;;;;29.42;12.40;;;;;;;;;;4978663;28;20305;-58
2021/09/12 12:50:50;;;;;;;21.90;10.52;;;;;;;;;;4974237;28;20046;-57
2021/09/12 12:53:20;;;;;;;24.52;11.65;;;;;;;;;;4981005;28;20067;-56
2021/09/12 12:55:47;;;;;;;22.13;10.85;;;;;;;;;;4978476;28;20082;-57
2021/09/12 12:58:15;;;;;;;22.08;11.50;;;;;;;;;;4982171;28;20039;-57
2021/09/12 13:00:43;;;;;;;20.33;10.45;;;;;;;;;;4976854;28;20030;-56
2021/09/12 13:03:10;;;;;;;23.75;10.93;;;;;;;;;;4989223;28;20123;-57
2021/09/12 13:05:38;;;;;;;24.10;10.98;;;;;;;;;;5019367;28;20038;-58
2021/09/12 13:08:06;;;;;;;30.85;11.18;;;;;;;;;;5002995;28;20054;-58
2021/09/12 13:10:33;;;;;;;29.05;13.90;;;;;;;;;;5000088;28;20056;-58
2021/09/12 13:12:59;;;;;;;23.38;10.88;;;;;;;;;;5001227;28;20038;-56
2021/09/12 13:15:27;;;;;;;24.08;11.98;;;;;;;;;;5001369;28;20141;-58
2021/09/12 13:17:53;;;;;;;26.65;11.02;;;;;;;;;;4999578;28;20080;-57
2021/09/12 13:20:20;;;;;;;22.77;10.30;;;;;;;;;;5017115;28;20057;-58
2021/09/12 13:22:48;;;;;;;23.17;11.50;;;;;;;;;;4997543;28;20038;-58
2021/09/12 13:25:16;;;;;;;23.30;11.15;;;;;;;;;;5004644;28;20033;-58
2021/09/12 13:27:43;;;;;;;23.60;11.75;;;;;;;;;;4994063;28;20042;-58
2021/09/12 13:30:12;;;;;;;26.10;11.27;;;;;;;;;;4991298;28;20061;-57
2021/09/12 13:32:38;;;;;;;20.00;9.65;;;;;;;;;;5002994;28;20119;-57
2021/09/12 13:35:06;;;;;;;25.02;12.38;;;;;;;;;;4995627;28;20066;-58
2021/09/12 13:37:34;;;;;;;;;;;;;;;;;;4991963;28;20027;-58
2021/09/12 13:40:02;;;;;;;25.27;10.48;;;;;;;;;;5001659;28;19921;-57
2021/09/12 13:42:28;;;;;;;24.58;10.60;;;;;;;;;;4993433;28;20072;-57
2021/09/12 13:45:02;;;;;;;23.42;10.68;;;;;;;;;;5000798;28;20046;-58
2021/09/12 13:47:28;;;;;;;23.20;11.00;;;;;;;;;;5000116;28;20053;-58
2021/09/12 13:49:55;;;;;;;23.05;10.93;;;;;;;;;;5004314;28;20057;-58
2021/09/12 13:52:21;;;;;;;19.40;10.07;;;;;;;;;;5002712;28;20056;-57
2021/09/12 13:54:48;;;;;;;22.30;10.05;;;;;;;;;;4984743;28;20037;-58
2021/09/12 13:57:16;;;;;;;20.50;10.90;;;;;;;;;;5017370;28;20120;-54
2021/09/12 13:59:42;;;;;;;21.55;10.80;;;;;;;;;;4997579;28;20068;-58
2021/09/12 14:02:09;;;;;;;20.65;11.43;;;;;;;;;;4992655;28;20046;-58
2021/09/12 14:04:39;;;;;;;16.95;9.05;;;;;;;;;;4976746;28;20034;-58
2021/09/12 14:07:06;;;;;;;17.23;9.45;;;;;;;;;;4993361;28;20042;-58
2021/09/12 14:09:32;;;;;;;18.30;8.80;;;;;;;;;;4989207;28;20050;-58
2021/09/12 14:11:59;;;;;;;21.88;9.23;;;;;;;;;;4992168;28;20041;-58
2021/09/12 14:14:27;;;;;;;21.70;9.48;;;;;;;;;;4995660;28;20046;-58
2021/09/12 14:16:53;;;;;;;21.10;9.75;;;;;;;;;;5002866;28;20207;-58
2021/09/12 14:19:23;;;;;;;19.55;10.90;;;;;;;;;;4998194;28;20069;-57
2021/09/12 14:21:51;;;;;;;20.13;9.55;;;;;;;;;;5000399;28;20057;-56
2021/09/12 14:24:18;;;;;;;18.65;9.82;;;;;;;;;;4995735;28;20082;-58
2021/09/12 14:26:44;;;;;;;16.13;9.05;;;;;;;;;;5003220;28;20043;-58
2021/09/12 14:29:11;;;;;;;23.10;9.82;;;;;;;;;;4995257;28;20100;-58
2021/09/12 14:31:39;;;;;;;22.67;10.70;;;;;;;;;;5002535;28;20116;-58
2021/09/12 14:34:05;;;;;;;21.88;10.38;;;;;;;;;;4997335;28;20026;-57